10th Annual Squamish Triathlon
A Memorial To Bob McIntosh

Sunday, July 8, 2007
Squamish, B.C.

Relay Results - Olympic Distance (1.5 km swim, 40 km bike, 10 km run)

 -----------------------------------------------------------------------------------------------------------------------------------------
 FINAL Place     Place/TOTAL    FINAL  BIB  NAME of               SWIM 1.5Km BIKE 37 Km  Mi. End of BIKE  RUN  10 Km  PACE
 PLACE in SEX    in DIVISION    TIME   NO. COMPETITOR             Rank Split Rank Split /Hr. Place  TIME  Rank Split /Mile CITY
 -----------------------------------------------------------------------------------------------------------------------------------------
    1   1/52  R  1/22 R-Mix  2:12:14  548  The Incredibles          7 26:25    3 1:07:33 20.4    4 1:33:57    1 38:18  6:10 Garibaldi Highla,
    2   2/52  R  2/22 R-Mix  2:19:09  507  Brian Hughes Law Offi    3 24:01    7 1:09:54 19.7    3 1:33:54    4 45:15  7:17 Garibaldi Highla,
    3   3/52  R  1/7  R-Male 2:20:05  543  Team Carneys             8 26:36    6 1:09:33 19.8    5 1:36:09    2 43:57  7:05 Squamish,BC     
    4   4/52  R  3/22 R-Mix  2:21:09  503  99ers                    9 26:58    5 1:09:15 19.9    6 1:36:12    3 44:58  7:15 Whistler,BC     
    5   5/52  R  1/23 R-Fem  2:23:08 1921  All about Me, Me & Me    2 23:42    8 1:10:09 19.7    2 1:33:51   12 49:18  7:56 Whistler,BC     
    6   6/52  R  2/23 R-Fem  2:27:17 1922  Phybionaturals           4 25:34    1 1:05:19 21.1    1 1:30:52   34 56:25  9:05 Squamish,BC     
    7   7/52  R  4/22 R-Mix  2:28:31  535  Republic National Tea   26 30:41   10 1:11:10 19.4   10 1:41:50    7 46:41  7:31 Squamish,BC     
    8   8/52  R  5/22 R-Mix  2:30:51  529  Madley In Love           5 25:53   15 1:13:14 18.8    8 1:39:07   21 51:44  8:20 Vancouver,BC    
    9   9/52  R  6/22 R-Mix  2:31:13  530  Mohawk                  35 33:05    2 1:06:58 20.6    9 1:40:03   17 51:11  8:15 Vancouver,BC    
   10  10/52  R  3/23 R-Fem  2:31:16  540  Squ'ish Girls           10 26:59   20 1:16:34 18.0   16 1:43:33    9 47:43  7:41 Squamish,BC     
   11  11/52  R  7/22 R-Mix  2:34:20  501  2 Vets And A House El   30 31:37   12 1:11:43 19.2   15 1:43:20   16 51:01  8:13 Garibaldi Highla,
   12  12/52  R  2/7  R-Male 2:34:54  539  Smoked Hoki             11 27:02   18 1:15:57 18.2   13 1:42:59   24 51:55  8:22 Squamish,BC     
   13  13/52  R  4/23 R-Fem  2:37:43  509  Burke Sisters           12 27:39   25 1:18:21 17.6   18 1:46:00   20 51:44  8:20 Whistler,BC     
   14  14/52  R  3/7  R-Male 2:37:59  502  3 Men & Maybe A Baby     6 26:17   38 1:24:44 16.3   25 1:51:00    8 46:59  7:34 Squamish,BC     
   15  15/52  R  8/22 R-Mix  2:39:05 1920  Young And Stupid        20 30:10   23 1:17:56 17.7   19 1:48:06   15 51:00  8:13 Garibaldi Highla,
   16  16/52  R  9/22 R-Mix  2:39:38  549  This Won't Hurt A Bit   14 27:52   29 1:20:18 17.2   20 1:48:09   18 51:29  8:18 Vancouver,BC    
   17  17/52  R  5/23 R-Fem  2:40:16  513  Do We Have To?          29 31:35   11 1:11:35 19.3   14 1:43:10   35 57:07  9:12 Whistler,BC     
   18  18/52  R 10/22 R-Mix  2:41:26  510  Cal Tri                 40 35:17    9 1:10:34 19.6   17 1:45:50   33 55:36  8:57 Whistler,BC     
   19  19/52  R  4/7  R-Male 2:42:21  511  Canadian Springs        44 36:54   27 1:18:58 17.5   36 1:55:51    6 46:30  7:29 Vancouver,BC    
   20  20/52  R 11/22 R-Mix  2:42:32  515  El-Mentals              37 33:31   19 1:16:17 18.1   23 1:49:48   25 52:45  8:30 Squamish,BC     
   21  21/52  R  6/23 R-Fem  2:43:20  504  A Canadian & 2 Kiwis    23 30:30    4 1:08:17 20.2    7 1:38:47   42 64:34 10:24 Squamish,BC     
   22  22/52  R  7/23 R-Fem  2:43:20  525  Kfc                     41 36:01   21 1:16:40 18.0   29 1:52:40   14 50:41  8:10 North Vancouver,
   23  23/52  R 12/22 R-Mix  2:43:59  533  Odilia Mobilia          42 36:08   14 1:13:03 18.9   22 1:49:11   29 54:49  8:50 Brackendale,BC  
   24  24/52  R 13/22 R-Mix  2:44:25 1919  Wet, Chafed And Infec   16 28:07   16 1:14:06 18.6   11 1:42:12   41 62:13 10:01 Squamish,BC     
   25  25/52  R  8/23 R-Fem  2:44:53 1918  Triple Threat           43 36:31   30 1:20:22 17.2   37 1:56:52   10 48:01  7:44 Garibaldi Highla,
   26  26/52  R  9/23 R-Fem  2:45:54  506  Born N'raised           34 32:59   24 1:18:04 17.7   26 1:51:03   31 54:52  8:50 Squamish,BC     
   27  27/52  R 14/22 R-Mix  2:46:03  520  Gut-Busters             21 30:11   36 1:24:10 16.4   32 1:54:21   19 51:42  8:20 Vancouver,ON    
   28  28/52  R 10/23 R-Fem  2:48:25  536  Rock, Paper, Scissors   38 34:06   17 1:15:03 18.4   21 1:49:09   38 59:17  9:33 Garibaldi Highla,
   29  29/52  R  5/7  R-Male 2:48:58  544  Team Real               22 30:26   28 1:19:35 17.3   24 1:50:01   37 58:57  9:30 Vancouver,BC    
   30  30/52  R 11/23 R-Fem  2:49:22  531  MBA                     36 33:24   32 1:21:22 17.0   33 1:54:45   28 54:37  8:48 Garibaldi Highla,
   31  31/52  R 12/23 R-Fem  2:49:27  517  Glacier Girls           45 37:13   22 1:16:48 18.0   31 1:54:00   32 55:28  8:56 Whistler,BC     
   32  32/52  R 15/22 R-Mix  2:50:12  538  Shrimp Tempura          15 28:02   41 1:27:38 15.7   34 1:55:39   27 54:34  8:47 Vancouver,BC    
   33  33/52  R 13/23 R-Fem  2:50:41  541  Team 2-1-2              18 28:29   44 1:30:26 15.3   40 1:58:55   23 51:47  8:20 Whistler,BC     
   34  34/52  R 16/22 R-Mix  2:50:44  516  Epic Riders              1 23:25   43 1:28:50 15.5   27 1:52:15   36 58:30  9:25 Whistler,BC     
   35  35/52  R 17/22 R-Mix  2:51:12  550  Tri Again At 40         24 30:38   13 1:11:46 19.2   12 1:42:24   48 68:49 11:05 Garibaldi Highla,
   36  36/52  R 14/23 R-Fem  2:51:59  532  Nobody's Angels         31 32:10   40 1:25:42 16.1   38 1:57:52   26 54:08  8:43 Vancouver,BC    
   37  37/52  R 18/22 R-Mix  2:52:02  505  Back In Black           50 39:29   35 1:23:50 16.5   44 2:03:18   11 48:44  7:51 Garibaldi Highla,
   38  38/52  R 15/23 R-Fem  2:56:52  521  Hanky Pankies           49 39:28   34 1:22:36 16.7   42 2:02:03   30 54:50  8:50 North Vancouver,
   39  39/52  R 19/22 R-Mix  2:57:51  534  Pain In The Calf        39 34:37   31 1:21:10 17.0   35 1:55:47   40 62:05 10:00 Garibaldi Highla,
   40  40/52  R 16/23 R-Fem  3:00:34  519  Go! Team                17 28:13   37 1:24:25 16.3   28 1:52:37   47 67:58 10:57 Vancouver,BC    
   41  41/52  R 17/23 R-Fem  3:00:48  524  Just For Fun            27 30:55   33 1:22:17 16.8   30 1:53:11   44 67:37 10:53 Garibaldi Highla,
   42  42/52  R 18/23 R-Fem  3:02:16  500  122 Between Us          19 30:07   46 1:31:49 15.0   41 2:01:55   39 60:21  9:43 Squamish,BC     
   43  43/52  R  6/7  R-Male 3:02:27  514  Eleze's                 13 27:39   52 1:48:38 12.7   51 2:16:17    5 46:10  7:26 Burnaby,BC      
   44  44/52  R 19/23 R-Fem  3:02:58  537  Rod Road Mamas          51 52:27   26 1:18:46 17.5   50 2:11:12   22 51:46  8:20 Garibaldi Highla,
   45  45/52  R 20/22 R-Mix  3:05:51  528  The Macswim Bike & Ru   33 32:41   39 1:25:33 16.1   39 1:58:14   45 67:38 10:54 Garibaldi Highla,
   46  46/52  R 21/22 R-Mix  3:12:02  545  Team Recycle            46 37:28   42 1:28:40 15.6   45 2:06:08   43 65:55 10:37 Squamish,BC     
   47  47/52  R 20/23 R-Fem  3:14:12  542  Team 3d                 32 32:34   50 1:33:59 14.7   46 2:06:33   46 67:39 10:54 North Vancouver,
   48  48/52  R 22/22 R-Mix  3:16:38  508  Buddies Who Relay       52 53:29   48 1:32:31 14.9   52 2:26:00   13 50:39  8:09 North Vancouver,
   49  49/52  R 21/23 R-Fem  3:23:22  526  Kinder Chaos            47 37:33   49 1:33:01 14.8   49 2:10:34   49 72:49 11:43 Garibaldi Highla,
   50  50/52  R 22/23 R-Fem  3:29:39  547  The Gracks              28 31:26   51 1:35:53 14.4   47 2:07:18   50 82:21 13:16 Burnaby,BC      
   51  51/52  R 23/23 R-Fem  3:35:35  546  The Atomic Bettys       48 38:26   45 1:30:39 15.2   48 2:09:05   51 86:31 13:56 Garibaldi Highla,
   52  52/52  R  7/7  R-Male          518  Glad Goons              25 30:39   47 1:32:25 14.9   43 2:03:04                  Vancouver,BC    
 -----------------------------------------------------------------------------------------------------------------------------------------

Return to the Race Headquarters Home Page